Time;durP1;ratioP1;P1;durP2;ratioP2;P2;SDS_P1;SDS_P2;PMS_P1;PMS_P2;Temp;Humidity;BMP_temperature;BMP_pressure;BME280_temperature;BME280_humidity;BME280_pressure;Samples;Min_cycle;Max_cycle;Signal;HPM_P1;HPM_P2
2023/02/07 00:01:34;;;;;;;28.67;17.15;;;;;;;-1.86;100.00;103856.31;7391052;19;20186;-48
2023/02/07 00:04:03;;;;;;;30.77;15.57;;;;;;;-1.86;100.00;103852.91;7393274;19;20147;-51
2023/02/07 00:06:35;;;;;;;25.20;14.48;;;;;;;-1.93;100.00;103851.09;7389772;19;20228;-48
2023/02/07 00:09:06;;;;;;;33.45;15.30;;;;;;;-2.06;100.00;103867.06;7392220;19;20170;-50
2023/02/07 00:11:39;;;;;;;30.45;15.98;;;;;;;-2.08;100.00;103875.13;7389598;19;20258;-51
2023/02/07 00:14:10;;;;;;;31.98;16.80;;;;;;;-2.11;100.00;103869.66;7393414;19;20511;-48
2023/02/07 00:16:40;;;;;;;33.15;17.27;;;;;;;-2.14;100.00;103869.19;7389481;19;20207;-47
2023/02/07 00:19:10;;;;;;;34.72;15.70;;;;;;;-2.01;100.00;103871.88;7391996;19;20170;-48
2023/02/07 00:21:39;;;;;;;29.17;16.27;;;;;;;-1.93;100.00;103848.56;7390140;19;20190;-48
2023/02/07 00:24:09;;;;;;;36.22;16.90;;;;;;;-1.96;100.00;103846.50;7393518;19;20156;-49
2023/02/07 00:26:42;;;;;;;34.72;17.40;;;;;;;-2.01;100.00;103869.34;7389654;19;20190;-49
2023/02/07 00:29:15;;;;;;;32.92;17.70;;;;;;;-2.08;100.00;103870.06;7390951;19;20167;-48
2023/02/07 00:31:44;;;;;;;33.35;17.27;;;;;;;-2.12;100.00;103865.25;7389487;19;20194;-49
2023/02/07 00:34:14;;;;;;;36.47;16.55;;;;;;;-2.11;100.00;103865.47;7392285;19;20166;-48
2023/02/07 00:36:44;;;;;;;33.40;15.68;;;;;;;-2.13;100.00;103861.81;7387841;19;20194;-48
2023/02/07 00:39:15;;;;;;;29.15;14.38;;;;;;;-2.12;100.00;103863.66;7391186;19;20642;-48
2023/02/07 00:41:47;;;;;;;33.97;17.13;;;;;;;-2.22;100.00;103863.97;7395289;19;20198;-50
2023/02/07 00:44:16;;;;;;;30.45;15.45;;;;;;;-2.34;100.00;103860.59;7400250;19;20155;-48
2023/02/07 00:46:46;;;;;;;28.80;14.32;;;;;;;-2.25;100.00;103865.13;7396341;19;20182;-49
2023/02/07 00:49:16;;;;;;;33.13;17.05;;;;;;;-2.21;100.00;103862.34;7398274;19;20162;-48
2023/02/07 00:51:45;;;;;;;30.25;16.10;;;;;;;-2.20;100.00;103859.13;7391623;19;20221;-48
2023/02/07 00:54:14;;;;;;;27.17;15.30;;;;;;;-2.11;100.00;103839.28;7396972;19;20135;-47
2023/02/07 00:56:46;;;;;;;34.25;16.80;;;;;;;-2.11;100.00;103837.66;7391592;19;20194;-48
2023/02/07 00:59:16;;;;;;;33.65;16.70;;;;;;;-2.14;100.00;103839.75;7395332;19;20174;-50
2023/02/07 01:01:45;;;;;;;29.95;14.95;;;;;;;-2.12;100.00;103839.94;7391211;19;20198;-49
2023/02/07 01:04:15;;;;;;;28.85;15.52;;;;;;;-2.23;100.00;103843.50;7396835;19;20139;-49
2023/02/07 01:06:44;;;;;;;28.77;15.88;;;;;;;-2.34;100.00;103852.06;7391261;19;20198;-49
2023/02/07 01:09:14;;;;;;;31.50;15.50;;;;;;;-2.38;100.00;103853.25;7395599;19;20762;-48
2023/02/07 01:11:43;;;;;;;33.70;15.48;;;;;;;-2.44;100.00;103854.91;7391347;19;20190;-49
2023/02/07 01:14:15;;;;;;;27.45;14.43;;;;;;;-2.46;100.00;103846.19;7397465;19;20960;-48
2023/02/07 01:16:45;;;;;;;29.60;15.00;;;;;;;-2.47;100.00;103844.31;7391650;19;20193;-47
2023/02/07 01:19:15;;;;;;;28.50;14.13;;;;;;;-2.46;100.00;103838.59;7395240;19;20577;-50
2023/02/07 01:21:44;;;;;;;25.95;14.20;;;;;;;-2.47;100.00;103836.72;7392230;19;20197;-48
2023/02/07 01:24:13;;;;;;;25.63;13.93;;;;;;;-2.50;100.00;103841.38;7397763;19;20139;-48
2023/02/07 01:26:43;;;;;;;30.40;14.70;;;;;;;-2.42;100.00;103835.78;7391809;19;20194;-47
2023/02/07 01:29:18;;;;;;;27.98;13.48;;;;;;;-2.38;100.00;103832.09;7395395;19;20191;-47
2023/02/07 01:31:47;;;;;;;26.60;14.00;;;;;;;-2.54;100.00;103829.91;7392323;19;20745;-48
2023/02/07 01:34:17;;;;;;;25.80;14.10;;;;;;;-2.69;100.00;103828.59;7398117;19;20160;-50
2023/02/07 01:36:47;;;;;;;28.90;14.02;;;;;;;-2.58;100.00;103822.56;7391941;19;20193;-48
2023/02/07 01:39:16;;;;;;;24.90;13.80;;;;;;;-2.54;100.00;103814.72;7396062;19;20195;-48
2023/02/07 01:41:46;;;;;;;30.95;14.43;;;;;;;-2.55;100.00;103799.31;7391933;19;20190;-51
2023/02/07 01:44:45;;;;;;;25.40;14.18;;;;;;;-2.58;100.00;103808.31;7398571;19;20135;-48
2023/02/07 01:47:19;;;;;;;28.38;13.68;;;;;;;-2.61;100.00;103807.84;7392609;19;20218;-47
2023/02/07 01:49:49;;;;;;;29.65;15.43;;;;;;;-2.61;100.00;103806.94;7395278;19;20170;-48
2023/02/07 01:52:28;;;;;;;28.73;14.35;;;;;;;-2.67;100.00;103801.91;7390357;19;20677;-48
2023/02/07 01:55:03;;;;;;;25.67;13.10;;;;;;;-2.64;100.00;103801.44;7398045;19;20142;-49
2023/02/07 01:57:32;;;;;;;28.38;14.25;;;;;;;-2.63;100.00;103806.72;7393174;19;20193;-48
2023/02/07 02:00:02;;;;;;;24.40;14.20;;;;;;;-2.70;100.00;103806.53;7394762;19;20167;-48
2023/02/07 02:02:36;;;;;;;26.48;14.25;;;;;;;-2.66;100.00;103811.34;7393116;19;20182;-48
2023/02/07 02:05:07;;;;;;;25.60;14.63;;;;;;;-2.66;100.00;103808.81;7396486;19;20170;-50
2023/02/07 02:07:37;;;;;;;28.00;13.73;;;;;;;-2.69;100.00;103815.94;7393481;19;20691;-47
2023/02/07 02:10:08;;;;;;;27.45;13.82;;;;;;;-2.65;100.00;103813.19;7394695;19;20178;-49
2023/02/07 02:13:07;;;;;;;26.95;13.52;;;;;;;-2.74;100.00;103819.41;7385346;19;20420;-58
2023/02/07 02:15:40;;;;;;;34.17;15.35;;;;;;;-2.45;100.00;103823.63;7391491;19;20163;-56
2023/02/07 02:18:24;;;;;;;25.88;13.50;;;;;;;-2.58;100.00;103818.41;7396995;19;20487;-55
2023/02/07 02:21:20;;;;;;;29.48;14.02;;;;;;;-2.45;100.00;103810.97;7392262;19;20190;-54
2023/02/07 02:24:03;;;;;;;34.03;16.60;;;;;;;-1.82;100.00;103800.38;7390853;19;20178;-55
2023/02/07 02:26:57;;;;;;;37.38;17.73;;;;;;;-1.46;100.00;103791.72;7391218;19;20197;-55
2023/02/07 02:29:55;;;;;;;33.42;16.88;;;;;;;-1.82;100.00;103790.25;7396109;19;20151;-54
2023/02/07 02:32:55;;;;;;;30.30;17.05;;;;;;;-1.99;100.00;103795.47;7392756;19;20190;-57
2023/02/07 02:35:32;;;;;;;36.50;17.48;;;;;;;-2.05;100.00;103785.38;7393611;19;20142;-54
2023/02/07 02:38:07;;;;;;;35.85;18.08;;;;;;;-1.89;100.00;103777.44;7396125;19;20138;-56
2023/02/07 02:40:44;;;;;;;485.63;231.35;;;;;;;-1.01;100.00;103760.78;7392908;19;20138;-56
2023/02/07 02:43:18;;;;;;;63.60;28.20;;;;;;;-1.12;100.00;103750.78;7395776;19;20186;-59
2023/02/07 02:45:52;;;;;;;68.45;30.02;;;;;;;-1.43;100.00;103752.53;7391971;19;20194;-56
2023/02/07 02:48:22;;;;;;;44.20;21.90;;;;;;;-0.90;100.00;103748.66;7397810;19;20139;-55
2023/02/07 02:50:55;;;;;;;48.67;22.60;;;;;;;-0.76;100.00;103741.31;7371224;19;20198;-58
2023/02/07 02:53:25;;;;;;;39.60;20.98;;;;;;;-0.69;100.00;103743.97;7394760;19;20650;-57
2023/02/07 02:56:12;;;;;;;35.15;18.15;;;;;;;-0.32;100.00;103749.59;7391349;19;20187;-59
2023/02/07 02:58:53;;;;;;;27.30;14.45;;;;;;;-0.73;100.00;103772.16;7395498;19;20167;-55
2023/02/07 03:01:26;;;;;;;26.52;14.25;;;;;;;-0.91;100.00;103792.44;7392897;19;20193;-52
2023/02/07 03:04:10;;;;;;;23.75;13.52;;;;;;;-1.13;100.00;103804.72;7393612;19;20203;-54
2023/02/07 03:06:55;;;;;;;24.92;12.27;;;;;;;-1.39;100.00;103812.16;7390380;19;20671;-52
2023/02/07 03:09:30;;;;;;;25.40;13.25;;;;;;;-1.43;100.00;103807.34;7396873;19;20138;-52
2023/02/07 03:12:04;;;;;;;25.05;11.48;;;;;;;-1.58;100.00;103819.72;7392037;19;20193;-55
2023/02/07 03:14:43;;;;;;;22.15;11.98;;;;;;;-1.76;100.00;103815.50;7392715;19;20543;-54
2023/02/07 03:17:17;;;;;;;20.05;12.13;;;;;;;-1.59;100.00;103822.94;7391239;19;20182;-57
2023/02/07 03:19:48;;;;;;;23.05;12.98;;;;;;;-1.60;100.00;103831.22;7395143;19;20147;-57
2023/02/07 03:22:23;;;;;;;21.38;12.70;;;;;;;-1.22;100.00;103825.53;7391825;19;20198;-56
2023/02/07 03:24:55;;;;;;;26.10;13.63;;;;;;;-1.28;100.00;103819.63;7395071;19;20615;-55
2023/02/07 03:27:25;;;;;;;27.02;13.32;;;;;;;-1.33;100.00;103825.69;7392730;19;20197;-53
2023/02/07 03:29:57;;;;;;;25.98;14.73;;;;;;;-1.59;100.00;103830.53;7396191;19;20139;-58
2023/02/07 03:32:29;;;;;;;28.58;13.40;;;;;;;-1.43;100.00;103832.69;7392502;19;20190;-60
2023/02/07 03:35:01;;;;;;;24.58;13.75;;;;;;;-1.14;100.00;103829.13;7394668;19;20135;-54
2023/02/07 03:37:38;;;;;;;27.98;13.32;;;;;;;-1.14;100.00;103826.59;7390293;19;20186;-57
2023/02/07 03:40:09;;;;;;;25.48;13.15;;;;;;;-1.96;100.00;103841.44;7395106;19;20623;-52
2023/02/07 03:42:42;;;;;;;26.27;11.88;;;;;;;-2.61;100.00;103839.81;7390907;19;20190;-55
2023/02/07 03:45:14;;;;;;;24.23;12.13;;;;;;;-2.77;100.00;103844.28;7394332;19;20141;-57
2023/02/07 03:47:43;;;;;;;22.83;12.32;;;;;;;-2.53;100.00;103835.84;7391382;19;20203;-57
2023/02/07 03:50:13;;;;;;;23.80;12.65;;;;;;;-2.20;100.00;103823.69;7395122;19;20150;-57
2023/02/07 03:52:45;;;;;;;26.35;12.73;;;;;;;-2.08;100.00;103817.84;7390558;19;20206;-55
2023/02/07 03:55:15;;;;;;;27.33;12.65;;;;;;;-1.51;100.00;103807.22;7394723;19;20510;-56
2023/02/07 03:57:44;;;;;;;26.27;13.80;;;;;;;-2.01;100.00;103822.16;7390269;19;20214;-57
2023/02/07 04:00:15;;;;;;;26.10;12.70;;;;;;;-2.37;100.00;103828.88;7394396;19;20134;-56
2023/02/07 04:02:45;;;;;;;21.80;12.55;;;;;;;-2.02;100.00;103827.03;7390503;19;20217;-52
2023/02/07 04:05:14;;;;;;;25.95;13.45;;;;;;;-1.61;100.00;103816.75;7394343;19;20139;-55
2023/02/07 04:07:46;;;;;;;25.00;13.10;;;;;;;-1.82;100.00;103804.50;7389300;19;20193;-55
2023/02/07 04:10:16;;;;;;;22.83;12.88;;;;;;;-1.92;100.00;103807.34;7394406;19;20546;-54
2023/02/07 04:12:46;;;;;;;23.85;12.27;;;;;;;-2.23;100.00;103824.19;7388982;19;20201;-56
2023/02/07 04:15:15;;;;;;;25.25;13.45;;;;;;;-2.36;100.00;103831.59;7392902;19;20145;-52
2023/02/07 04:17:45;;;;;;;22.80;12.52;;;;;;;-2.37;100.00;103837.38;7398426;19;20198;-57
2023/02/07 04:20:14;;;;;;;24.70;12.50;;;;;;;-2.21;100.00;103837.06;7401793;19;20135;-58
2023/02/07 04:22:46;;;;;;;28.98;13.90;;;;;;;-2.32;100.00;103828.84;7397495;19;20205;-58
2023/02/07 04:25:16;;;;;;;25.13;12.35;;;;;;;-2.24;100.00;103831.53;7401823;19;20130;-53
2023/02/07 04:27:45;;;;;;;23.35;13.65;;;;;;;-2.18;100.00;103833.34;7397784;19;20677;-55
2023/02/07 04:30:15;;;;;;;25.38;12.70;;;;;;;-2.31;100.00;103827.19;7401538;19;20139;-59
2023/02/07 04:32:45;;;;;;;23.92;13.93;;;;;;;-2.67;100.00;103833.88;7397482;19;20670;-57
2023/02/07 04:35:14;;;;;;;20.48;11.60;;;;;;;-2.86;100.00;103852.31;7398441;19;20516;-58
2023/02/07 04:37:46;;;;;;;23.77;11.95;;;;;;;-2.62;100.00;103846.47;7396169;19;20186;-57
2023/02/07 04:40:16;;;;;;;22.15;13.15;;;;;;;-2.32;100.00;103841.47;7401341;19;20142;-58
2023/02/07 04:42:46;;;;;;;27.85;12.70;;;;;;;-3.10;100.00;103846.22;7396787;19;20213;-58
2023/02/07 04:45:15;;;;;;;20.30;11.65;;;;;;;-3.32;100.00;103858.22;7401426;19;20143;-56
2023/02/07 04:47:45;;;;;;;26.42;12.05;;;;;;;-3.40;100.00;103863.06;7396484;19;20198;-58
2023/02/07 04:50:14;;;;;;;22.70;11.30;;;;;;;-3.31;100.00;103855.00;7401351;19;20135;-54
2023/02/07 04:52:46;;;;;;;21.10;11.13;;;;;;;-3.27;100.00;103838.00;7396376;19;20231;-55
2023/02/07 04:55:15;;;;;;;22.30;12.10;;;;;;;-3.39;100.00;103839.63;7398104;19;20139;-56
2023/02/07 04:57:45;;;;;;;24.20;12.38;;;;;;;-2.96;100.00;103835.59;7396042;19;20194;-60
2023/02/07 05:00:16;;;;;;;23.00;12.68;;;;;;;-2.63;100.00;103826.94;7401144;19;20612;-52
2023/02/07 05:02:46;;;;;;;29.60;14.10;;;;;;;-2.56;100.00;103822.78;7396837;19;20238;-58
2023/02/07 05:05:15;;;;;;;24.50;12.32;;;;;;;-2.76;100.00;103830.94;7400687;19;20164;-53
2023/02/07 05:07:47;;;;;;;23.63;12.57;;;;;;;-2.37;100.00;103833.94;7395587;19;20198;-58
2023/02/07 05:10:17;;;;;;;21.98;11.85;;;;;;;-2.90;100.00;103832.38;7400632;19;20494;-55
2023/02/07 05:12:46;;;;;;;24.08;11.50;;;;;;;-3.37;100.00;103842.41;7395228;19;20206;-56
2023/02/07 05:15:16;;;;;;;23.58;13.00;;;;;;;-2.77;100.00;103837.59;7397861;19;20139;-56
2023/02/07 05:17:46;;;;;;;23.45;12.23;;;;;;;-2.66;100.00;103838.25;7395607;19;20186;-57
2023/02/07 05:20:16;;;;;;;26.58;13.23;;;;;;;-2.43;100.00;103846.59;7399815;19;20169;-57
2023/02/07 05:22:48;;;;;;;23.42;12.82;;;;;;;-2.43;100.00;103846.59;7395060;19;20539;-54
2023/02/07 05:25:18;;;;;;;25.90;13.00;;;;;;;-2.57;100.00;103852.19;7400009;19;20142;-50
2023/02/07 05:27:47;;;;;;;26.77;13.45;;;;;;;-3.05;100.00;103860.44;7373474;19;20190;-56
2023/02/07 05:30:17;;;;;;;22.92;12.50;;;;;;;-3.45;100.00;103866.50;7399500;19;20130;-55
2023/02/07 05:35:29;;;;;;;20.42;11.10;;;;;;;-3.34;100.00;103869.72;7392263;19;20130;-52
2023/02/07 05:38:01;;;;;;;22.38;12.27;;;;;;;-3.49;100.00;103881.88;7398013;19;20138;-58
2023/02/07 05:40:30;;;;;;;23.10;11.00;;;;;;;-3.43;100.00;103877.75;7395465;19;20135;-58
2023/02/07 05:43:00;;;;;;;22.13;11.60;;;;;;;-3.13;100.00;103874.50;7396739;19;20175;-54
2023/02/07 05:45:30;;;;;;;25.42;13.20;;;;;;;-2.85;100.00;103861.78;7394514;19;20127;-53
2023/02/07 05:47:59;;;;;;;26.95;13.65;;;;;;;-3.19;100.00;103868.53;7398625;19;20616;-57
2023/02/07 05:50:29;;;;;;;26.30;12.80;;;;;;;-3.24;100.00;103865.31;7394911;19;20146;-53
2023/02/07 05:53:01;;;;;;;27.60;14.38;;;;;;;-3.54;100.00;103882.84;7397506;19;20174;-58
2023/02/07 05:55:31;;;;;;;28.40;13.85;;;;;;;-3.80;100.00;103889.91;7391750;19;20156;-55
2023/02/07 05:58:00;;;;;;;25.90;12.30;;;;;;;-3.82;100.00;103896.34;7397741;19;20151;-55
2023/02/07 06:00:30;;;;;;;23.83;13.05;;;;;;;-3.23;100.00;103884.81;7394704;19;20135;-56
2023/02/07 06:03:00;;;;;;;29.30;13.02;;;;;;;-3.27;100.00;103882.56;7396944;19;20179;-59
2023/02/07 06:05:30;;;;;;;23.13;13.02;;;;;;;-2.89;100.00;103863.59;7393489;19;20138;-54
2023/02/07 06:08:03;;;;;;;30.50;14.63;;;;;;;-2.45;100.00;103865.72;7397352;19;20138;-52
2023/02/07 06:10:32;;;;;;;43.22;20.80;;;;;;;-2.60;100.00;103867.84;7394219;19;20131;-54
2023/02/07 06:13:02;;;;;;;34.58;15.80;;;;;;;-2.58;100.00;103868.06;7396032;19;20175;-56
2023/02/07 06:15:31;;;;;;;33.70;14.27;;;;;;;-2.99;100.00;103881.56;7392073;19;20513;-54
2023/02/07 06:18:00;;;;;;;30.35;13.68;;;;;;;-3.38;100.00;103893.59;7397280;19;20258;-55
2023/02/07 06:20:30;;;;;;;195.25;72.72;;;;;;;-2.40;100.00;103892.59;7393692;19;20135;-58
2023/02/07 06:22:59;;;;;;;33.50;17.05;;;;;;;-2.55;100.00;103892.88;7396265;19;20174;-55
2023/02/07 06:25:32;;;;;;;47.55;21.92;;;;;;;-2.45;100.00;103891.91;7394829;19;20143;-55
2023/02/07 06:28:01;;;;;;;30.30;16.10;;;;;;;-2.77;100.00;103897.34;7396594;19;20163;-55
2023/02/07 06:30:31;;;;;;;30.70;15.10;;;;;;;-3.05;100.00;103900.88;7393169;19;20143;-55
2023/02/07 06:33:00;;;;;;;31.70;15.02;;;;;;;-2.89;100.00;103906.56;7395955;19;20281;-55
2023/02/07 06:35:30;;;;;;;26.70;14.50;;;;;;;-3.03;100.00;103917.19;7391313;19;20138;-57
2023/02/07 06:37:59;;;;;;;33.88;17.40;;;;;;;-2.89;100.00;103910.03;7394761;19;20152;-53
2023/02/07 06:40:32;;;;;;;29.98;15.95;;;;;;;-2.81;100.00;103906.09;7393478;19;20134;-59
2023/02/07 06:43:01;;;;;;;27.90;13.52;;;;;;;-3.05;100.00;103926.13;7395837;19;20166;-51
2023/02/07 06:45:31;;;;;;;26.35;12.90;;;;;;;-3.23;100.00;103925.25;7394081;19;20149;-54
2023/02/07 06:48:00;;;;;;;34.42;15.98;;;;;;;-3.36;100.00;103930.09;7395841;19;20178;-55
2023/02/07 06:50:30;;;;;;;31.92;15.75;;;;;;;-3.01;100.00;103936.00;7392529;19;20631;-57
2023/02/07 06:53:00;;;;;;;36.13;17.00;;;;;;;-2.90;100.00;103923.38;7395508;19;20170;-51
2023/02/07 06:55:34;;;;;;;28.85;15.82;;;;;;;-2.99;100.00;103932.09;7391285;19;20146;-55
2023/02/07 06:58:04;;;;;;;27.17;14.55;;;;;;;-2.98;100.00;103933.94;7395564;19;20230;-55
2023/02/07 07:00:34;;;;;;;30.35;15.82;;;;;;;-3.03;100.00;103934.88;7391786;19;20135;-54
2023/02/07 07:03:03;;;;;;;33.00;16.88;;;;;;;-3.00;100.00;103941.31;7395567;19;20283;-52
2023/02/07 07:05:34;;;;;;;29.92;16.58;;;;;;;-2.63;100.00;103935.66;7392541;19;20145;-56
2023/02/07 07:08:04;;;;;;;31.48;15.05;;;;;;;-3.06;100.00;103944.53;7395762;19;20146;-53
2023/02/07 07:10:36;;;;;;;30.33;16.02;;;;;;;-3.27;100.00;103958.34;7391990;19;20131;-54
2023/02/07 07:13:06;;;;;;;37.53;17.70;;;;;;;-3.15;100.00;103949.13;7394345;19;20174;-55
2023/02/07 07:15:35;;;;;;;27.80;12.95;;;;;;;-2.96;100.00;103952.78;7390940;19;20147;-53
2023/02/07 07:18:06;;;;;;;49.35;23.02;;;;;;;-2.71;100.00;103947.19;7395983;19;20542;-55
2023/02/07 07:20:35;;;;;;;34.03;17.42;;;;;;;-2.09;100.00;103947.63;7391817;19;20157;-55
2023/02/07 07:23:05;;;;;;;41.60;21.25;;;;;;;-1.68;100.00;103944.13;7395026;19;20214;-59
2023/02/07 07:25:37;;;;;;;29.02;15.40;;;;;;;-2.58;100.00;103952.44;7390906;19;20818;-55
2023/02/07 07:28:07;;;;;;;27.38;14.25;;;;;;;-3.13;100.00;103956.25;7395228;19;20612;-55
2023/02/07 07:30:36;;;;;;;38.08;14.82;;;;;;;-3.37;100.00;103965.22;7392058;19;20762;-56
2023/02/07 07:33:06;;;;;;;25.77;12.10;;;;;;;-3.17;100.00;103956.47;7394620;19;20191;-57
2023/02/07 07:35:35;;;;;;;26.55;13.82;;;;;;;-3.32;100.00;103959.25;7389819;19;20583;-53
2023/02/07 07:38:05;;;;;;;98.88;34.97;;;;;;;-2.63;100.00;103950.84;7395366;19;20150;-55
2023/02/07 07:40:37;;;;;;;111.47;33.55;;;;;;;-1.74;100.00;103955.00;7391123;19;20808;-57
2023/02/07 07:43:08;;;;;;;59.08;21.92;;;;;;;-2.47;100.00;103958.13;7393690;19;20171;-52
2023/02/07 07:45:37;;;;;;;28.05;13.63;;;;;;;-3.05;100.00;103964.03;7390646;19;20135;-53
2023/02/07 07:48:07;;;;;;;25.45;12.35;;;;;;;-3.32;100.00;103974.41;7394590;19;20142;-56
2023/02/07 07:50:36;;;;;;;28.70;13.70;;;;;;;-3.56;100.00;103972.56;7390587;19;20138;-57
2023/02/07 07:53:06;;;;;;;29.63;13.05;;;;;;;-3.67;100.00;103971.88;7394692;19;20174;-54
2023/02/07 07:55:38;;;;;;;24.88;11.57;;;;;;;-3.65;100.00;103967.03;7390004;19;20143;-58
2023/02/07 07:58:09;;;;;;;28.33;14.30;;;;;;;-3.55;100.00;103959.22;7395544;19;20479;-56
2023/02/07 08:00:38;;;;;;;27.77;13.38;;;;;;;-3.61;100.00;103953.25;7390978;19;20131;-55
2023/02/07 08:03:09;;;;;;;31.65;14.40;;;;;;;-3.59;100.00;103962.91;7393580;19;20226;-57
2023/02/07 08:05:39;;;;;;;26.98;13.25;;;;;;;-3.55;100.00;103955.13;7389852;19;20135;-56
2023/02/07 08:08:09;;;;;;;29.25;14.27;;;;;;;-3.47;100.00;103943.66;7394418;19;20138;-57
2023/02/07 08:10:41;;;;;;;31.60;16.00;;;;;;;-3.30;100.00;103932.59;7392388;19;20134;-57
2023/02/07 08:13:11;;;;;;;30.90;15.05;;;;;;;-3.29;100.00;103937.88;7393260;19;20178;-57
2023/02/07 08:15:41;;;;;;;33.20;15.60;;;;;;;-3.40;100.00;103946.41;7389748;19;20150;-59
2023/02/07 08:18:11;;;;;;;35.42;15.63;;;;;;;-3.45;100.00;103941.31;7394460;19;20139;-57
2023/02/07 08:20:40;;;;;;;37.13;17.00;;;;;;;-3.45;100.00;103938.81;7389784;19;20639;-58
2023/02/07 08:23:10;;;;;;;30.67;15.52;;;;;;;-3.29;100.00;103930.31;7393412;19;20174;-54
2023/02/07 08:25:43;;;;;;;28.70;14.20;;;;;;;-3.40;100.00;103928.72;7389469;19;20642;-54
2023/02/07 08:28:12;;;;;;;29.20;14.50;;;;;;;-3.38;100.00;103916.34;7394471;19;20163;-57
2023/02/07 08:30:41;;;;;;;29.55;15.50;;;;;;;-3.43;100.00;103910.56;7388150;19;20147;-57
2023/02/07 08:33:11;;;;;;;34.13;15.38;;;;;;;-3.25;100.00;103901.38;7386086;19;20174;-58
2023/02/07 08:35:41;;;;;;;34.58;15.30;;;;;;;-3.21;100.00;103905.28;7389243;19;20159;-57
2023/02/07 08:38:10;;;;;;;30.55;15.18;;;;;;;-3.33;100.00;103891.75;7393051;19;20143;-58
2023/02/07 08:40:42;;;;;;;34.17;15.40;;;;;;;-3.19;100.00;103886.22;7389291;19;20615;-55
2023/02/07 08:43:13;;;;;;;31.83;15.15;;;;;;;-3.13;100.00;103872.88;7392798;19;20202;-55
2023/02/07 08:45:43;;;;;;;33.65;16.75;;;;;;;-2.52;100.00;103868.06;7388671;19;20241;-56
2023/02/07 08:48:13;;;;;;;28.60;14.95;;;;;;;-2.47;100.00;103867.09;7390973;19;20154;-56
2023/02/07 08:50:42;;;;;;;33.22;15.15;;;;;;;-2.58;100.00;103874.06;7389043;19;20155;-58
2023/02/07 08:53:12;;;;;;;32.35;15.07;;;;;;;-2.74;100.00;103875.97;7392622;19;20183;-58
2023/02/07 08:55:45;;;;;;;29.48;15.77;;;;;;;-2.90;100.00;103872.81;7385707;19;20134;-58
2023/02/07 08:58:14;;;;;;;36.08;16.75;;;;;;;-2.91;100.00;103870.06;7393037;19;20203;-59
2023/02/07 09:00:44;;;;;;;34.67;16.90;;;;;;;-2.92;100.00;103879.22;7388801;19;21020;-56
2023/02/07 09:03:14;;;;;;;30.73;15.95;;;;;;;-2.88;100.00;103861.31;7398953;19;20187;-58
2023/02/07 09:05:43;;;;;;;28.55;13.95;;;;;;;-2.56;100.00;103858.19;7396096;19;20141;-57
2023/02/07 09:08:13;;;;;;;35.05;16.42;;;;;;;-2.50;100.00;103861.59;7399771;19;20138;-58
2023/02/07 09:10:45;;;;;;;34.08;17.13;;;;;;;-2.40;100.00;103854.66;7396131;19;20135;-58
2023/02/07 09:13:15;;;;;;;33.53;16.05;;;;;;;-2.14;100.00;103849.88;7398641;19;20178;-58
2023/02/07 09:15:45;;;;;;;34.38;16.48;;;;;;;-1.93;100.00;103843.50;7394992;19;20759;-56
2023/02/07 09:18:14;;;;;;;28.70;14.80;;;;;;;-2.07;100.00;103845.00;7399605;19;20155;-57
2023/02/07 09:20:45;;;;;;;38.38;17.77;;;;;;;-2.07;100.00;103859.25;7395381;19;20235;-52
2023/02/07 09:23:21;;;;;;;32.03;16.00;;;;;;;-2.03;100.00;103853.94;7398661;19;20519;-53
2023/02/07 09:25:53;;;;;;;35.92;15.95;;;;;;;-2.11;100.00;103855.38;7393008;19;20309;-55
2023/02/07 09:28:23;;;;;;;29.55;15.45;;;;;;;-2.10;100.00;103859.72;7399456;19;20142;-56
2023/02/07 09:30:53;;;;;;;32.47;16.70;;;;;;;-1.87;100.00;103844.38;7395365;19;20194;-56
2023/02/07 09:33:24;;;;;;;36.00;17.35;;;;;;;-1.72;100.00;103852.28;7398706;19;20179;-55
2023/02/07 09:35:54;;;;;;;34.25;16.75;;;;;;;-1.61;100.00;103851.28;7391532;19;20200;-54
2023/02/07 09:38:25;;;;;;;34.88;17.67;;;;;;;-1.61;100.00;103862.31;7398981;19;20159;-56
2023/02/07 09:40:58;;;;;;;40.53;17.02;;;;;;;-1.58;100.00;103871.97;7394257;19;20202;-53
2023/02/07 09:43:34;;;;;;;34.60;17.33;;;;;;;-1.74;100.00;103873.97;7397735;19;20171;-56
2023/02/07 09:46:11;;;;;;;30.30;16.10;;;;;;;-1.89;100.00;103878.69;7393401;19;20194;-57
2023/02/07 09:48:47;;;;;;;44.47;18.83;;;;;;;-1.81;100.00;103873.09;7397463;19;20145;-52
2023/02/07 09:51:22;;;;;;;37.08;17.60;;;;;;;-1.62;100.00;103878.22;7394621;19;20197;-56
2023/02/07 09:53:54;;;;;;;36.53;17.52;;;;;;;-1.55;100.00;103887.59;7396487;19;20174;-56
2023/02/07 09:56:29;;;;;;;41.88;18.15;;;;;;;-1.66;100.00;103888.63;7391608;19;20190;-55
2023/02/07 09:59:03;;;;;;;41.75;18.20;;;;;;;-1.44;100.00;103891.66;7398448;19;20486;-58
2023/02/07 10:01:36;;;;;;;35.25;17.92;;;;;;;-1.25;100.00;103891.00;7393033;19;20197;-58
2023/02/07 10:04:17;;;;;;;40.45;18.17;;;;;;;-1.22;100.00;103899.03;7396000;19;20174;-57
2023/02/07 10:06:49;;;;;;;36.42;18.67;;;;;;;-1.11;100.00;103904.69;7393700;19;20218;-58
2023/02/07 10:09:20;;;;;;;34.83;17.88;;;;;;;-1.09;100.00;103903.28;7398221;19;20131;-58
2023/02/07 10:11:54;;;;;;;34.72;17.42;;;;;;;-0.84;100.00;103912.69;7372163;19;20977;-58
2023/02/07 10:14:37;;;;;;;39.47;16.58;;;;;;;-0.94;100.00;103922.25;7392339;19;20884;-58
2023/02/07 10:17:30;;;;;;;34.53;15.93;;;;;;;-1.14;100.00;103950.78;7391316;19;20190;-58
2023/02/07 10:20:07;;;;;;;38.90;17.75;;;;;;;-1.24;100.00;103946.06;7397244;19;20603;-58
2023/02/07 10:22:42;;;;;;;33.17;16.60;;;;;;;-1.21;100.00;103958.25;7393936;19;20186;-58
2023/02/07 10:25:21;;;;;;;32.38;15.85;;;;;;;-1.17;100.00;103964.66;7396519;19;20138;-58
2023/02/07 10:28:01;;;;;;;34.30;16.15;;;;;;;-0.99;100.00;103952.03;7396370;19;20559;-58
2023/02/07 10:30:32;;;;;;;33.83;16.45;;;;;;;-0.92;100.00;103948.72;7393146;19;20146;-58
2023/02/07 10:33:06;;;;;;;32.28;17.70;;;;;;;-0.77;100.00;103952.47;7395749;19;20170;-57
2023/02/07 10:35:38;;;;;;;32.17;15.57;;;;;;;-0.78;100.00;103958.25;7391877;19;20140;-58
2023/02/07 10:38:17;;;;;;;35.80;17.48;;;;;;;-0.63;100.00;103951.88;7393898;19;20130;-59
2023/02/07 10:40:53;;;;;;;32.55;16.80;;;;;;;-0.64;100.00;103954.19;7391806;19;20198;-55
2023/02/07 10:43:29;;;;;;;37.40;18.35;;;;;;;-0.78;100.00;103970.03;7395905;19;20174;-58
2023/02/07 10:46:01;;;;;;;33.47;16.00;;;;;;;-1.02;100.00;103976.94;7390263;19;20537;-59
2023/02/07 10:48:35;;;;;;;28.77;13.82;;;;;;;-1.11;100.00;103973.13;7395459;19;20193;-55
2023/02/07 10:51:06;;;;;;;35.90;16.52;;;;;;;-0.92;100.00;103968.09;7389183;19;20261;-57
2023/02/07 10:53:46;;;;;;;39.58;17.55;;;;;;;-0.76;100.00;103961.94;7394532;19;20178;-59
2023/02/07 10:56:28;;;;;;;31.27;16.30;;;;;;;-0.55;100.00;103971.59;7392151;19;20198;-58
2023/02/07 10:59:01;;;;;;;32.58;15.63;;;;;;;-0.58;100.00;103973.72;7392924;19;20163;-60
2023/02/07 11:01:32;;;;;;;31.25;15.55;;;;;;;-0.51;100.00;103972.94;7389741;19;20194;-56
2023/02/07 11:04:01;;;;;;;35.60;16.08;;;;;;;-0.53;100.00;103973.44;7394429;19;20194;-57
2023/02/07 11:06:32;;;;;;;30.92;15.93;;;;;;;-0.39;100.00;103970.25;7390384;19;20214;-58
2023/02/07 11:09:22;;;;;;;31.23;14.43;;;;;;;-0.55;100.00;103984.28;7392397;19;20555;-59
2023/02/07 11:11:52;;;;;;;27.88;13.55;;;;;;;-0.58;100.00;103986.41;7391426;19;20186;-53
2023/02/07 11:14:27;;;;;;;34.22;15.63;;;;;;;-0.44;100.00;103988.31;7393998;19;20516;-58
2023/02/07 11:16:59;;;;;;;28.42;14.63;;;;;;;-0.54;100.00;103985.19;7391323;19;20189;-58
2023/02/07 11:19:29;;;;;;;32.83;14.82;;;;;;;-0.52;100.00;103983.78;7395669;19;20135;-58
2023/02/07 11:22:12;;;;;;;32.47;14.20;;;;;;;-0.54;100.00;103985.19;7389071;19;20186;-56
2023/02/07 11:24:42;;;;;;;32.60;16.17;;;;;;;-0.60;100.00;103974.22;7392548;19;20199;-58
2023/02/07 11:27:15;;;;;;;40.30;16.60;;;;;;;-0.44;100.00;103975.63;7390709;19;20227;-58